sensor_id;sensor_type;location;lat;lon;timestamp;P1;durP1;ratioP1;P2;durP2;ratioP2
62863;SDS011;48954;59.950;11.014;2023-04-03T00:01:38;3.90;;;1.10;;
62863;SDS011;48954;59.950;11.014;2023-04-03T00:04:16;3.40;;;1.50;;
62863;SDS011;48954;59.950;11.014;2023-04-03T00:07:09;3.20;;;1.60;;
62863;SDS011;48954;59.950;11.014;2023-04-03T00:09:35;4.10;;;1.70;;
62863;SDS011;48954;59.950;11.014;2023-04-03T00:12:01;4.60;;;1.50;;
62863;SDS011;48954;59.950;11.014;2023-04-03T00:14:27;6.30;;;2.00;;
62863;SDS011;48954;59.950;11.014;2023-04-03T00:16:53;5.30;;;1.50;;
62863;SDS011;48954;59.950;11.014;2023-04-03T00:19:21;3.00;;;1.20;;
62863;SDS011;48954;59.950;11.014;2023-04-03T00:21:47;4.50;;;1.60;;
62863;SDS011;48954;59.950;11.014;2023-04-03T00:24:13;6.10;;;2.00;;
62863;SDS011;48954;59.950;11.014;2023-04-03T00:26:38;6.30;;;1.40;;
62863;SDS011;48954;59.950;11.014;2023-04-03T00:29:04;4.30;;;1.20;;
62863;SDS011;48954;59.950;11.014;2023-04-03T00:31:30;4.30;;;1.40;;
62863;SDS011;48954;59.950;11.014;2023-04-03T00:34:02;5.00;;;1.80;;
62863;SDS011;48954;59.950;11.014;2023-04-03T00:36:28;3.90;;;1.30;;
62863;SDS011;48954;59.950;11.014;2023-04-03T00:38:54;4.10;;;1.30;;
62863;SDS011;48954;59.950;11.014;2023-04-03T00:41:20;3.40;;;1.30;;
62863;SDS011;48954;59.950;11.014;2023-04-03T00:43:46;3.40;;;1.30;;
62863;SDS011;48954;59.950;11.014;2023-04-03T00:46:14;3.20;;;1.40;;
62863;SDS011;48954;59.950;11.014;2023-04-03T00:48:46;5.40;;;1.40;;
62863;SDS011;48954;59.950;11.014;2023-04-03T00:51:14;2.20;;;1.10;;
62863;SDS011;48954;59.950;11.014;2023-04-03T00:53:56;3.10;;;1.50;;
62863;SDS011;48954;59.950;11.014;2023-04-03T00:56:26;3.10;;;1.20;;
62863;SDS011;48954;59.950;11.014;2023-04-03T00:59:03;4.70;;;1.60;;
62863;SDS011;48954;59.950;11.014;2023-04-03T01:01:56;5.00;;;1.30;;
62863;SDS011;48954;59.950;11.014;2023-04-03T01:04:39;2.80;;;1.60;;
62863;SDS011;48954;59.950;11.014;2023-04-03T01:07:08;4.70;;;1.50;;
62863;SDS011;48954;59.950;11.014;2023-04-03T01:09:38;2.70;;;1.00;;
62863;SDS011;48954;59.950;11.014;2023-04-03T01:14:40;3.70;;;1.80;;
62863;SDS011;48954;59.950;11.014;2023-04-03T01:25:35;3.90;;;1.40;;
62863;SDS011;48954;59.950;11.014;2023-04-03T01:28:24;1.40;;;0.60;;
62863;SDS011;48954;59.950;11.014;2023-04-03T01:31:27;6.20;;;1.40;;
62863;SDS011;48954;59.950;11.014;2023-04-03T01:34:07;6.70;;;1.40;;
62863;SDS011;48954;59.950;11.014;2023-04-03T01:36:39;5.60;;;1.80;;
62863;SDS011;48954;59.950;11.014;2023-04-03T01:39:05;3.80;;;2.10;;
62863;SDS011;48954;59.950;11.014;2023-04-03T01:41:35;4.30;;;1.60;;
62863;SDS011;48954;59.950;11.014;2023-04-03T01:44:07;3.80;;;1.40;;
62863;SDS011;48954;59.950;11.014;2023-04-03T01:46:56;3.20;;;1.00;;
62863;SDS011;48954;59.950;11.014;2023-04-03T01:49:24;2.20;;;0.80;;
62863;SDS011;48954;59.950;11.014;2023-04-03T01:51:55;3.90;;;1.10;;
62863;SDS011;48954;59.950;11.014;2023-04-03T01:54:23;3.50;;;0.80;;
62863;SDS011;48954;59.950;11.014;2023-04-03T01:56:49;5.20;;;1.50;;
62863;SDS011;48954;59.950;11.014;2023-04-03T01:59:16;2.90;;;1.10;;
62863;SDS011;48954;59.950;11.014;2023-04-03T02:01:42;2.10;;;1.00;;
62863;SDS011;48954;59.950;11.014;2023-04-03T02:04:13;2.10;;;0.80;;
62863;SDS011;48954;59.950;11.014;2023-04-03T02:06:42;2.00;;;1.10;;
62863;SDS011;48954;59.950;11.014;2023-04-03T02:09:12;3.00;;;0.90;;
62863;SDS011;48954;59.950;11.014;2023-04-03T02:11:37;2.40;;;1.10;;
62863;SDS011;48954;59.950;11.014;2023-04-03T02:14:03;3.80;;;1.20;;
62863;SDS011;48954;59.950;11.014;2023-04-03T02:16:29;2.40;;;1.20;;
62863;SDS011;48954;59.950;11.014;2023-04-03T02:18:56;4.20;;;1.70;;
62863;SDS011;48954;59.950;11.014;2023-04-03T02:21:22;2.50;;;0.90;;
62863;SDS011;48954;59.950;11.014;2023-04-03T02:23:51;2.20;;;1.10;;
62863;SDS011;48954;59.950;11.014;2023-04-03T02:26:36;2.70;;;0.90;;
62863;SDS011;48954;59.950;11.014;2023-04-03T02:29:07;2.40;;;0.90;;
62863;SDS011;48954;59.950;11.014;2023-04-03T02:31:33;3.10;;;0.80;;
62863;SDS011;48954;59.950;11.014;2023-04-03T02:34:25;4.90;;;1.10;;
62863;SDS011;48954;59.950;11.014;2023-04-03T02:37:21;3.30;;;1.00;;
62863;SDS011;48954;59.950;11.014;2023-04-03T02:39:55;2.70;;;0.70;;
62863;SDS011;48954;59.950;11.014;2023-04-03T02:42:23;3.00;;;1.10;;
62863;SDS011;48954;59.950;11.014;2023-04-03T02:45:02;2.80;;;1.10;;
62863;SDS011;48954;59.950;11.014;2023-04-03T02:47:41;3.00;;;1.00;;
62863;SDS011;48954;59.950;11.014;2023-04-03T02:50:07;3.40;;;1.00;;
62863;SDS011;48954;59.950;11.014;2023-04-03T02:52:33;2.80;;;0.80;;
62863;SDS011;48954;59.950;11.014;2023-04-03T02:54:59;3.10;;;1.00;;
62863;SDS011;48954;59.950;11.014;2023-04-03T02:57:25;1.30;;;0.60;;
62863;SDS011;48954;59.950;11.014;2023-04-03T02:59:53;1.50;;;0.80;;
62863;SDS011;48954;59.950;11.014;2023-04-03T03:02:19;3.00;;;0.90;;
62863;SDS011;48954;59.950;11.014;2023-04-03T03:04:49;2.30;;;0.60;;
62863;SDS011;48954;59.950;11.014;2023-04-03T03:07:16;3.00;;;0.70;;
62863;SDS011;48954;59.950;11.014;2023-04-03T03:09:41;5.60;;;1.20;;
62863;SDS011;48954;59.950;11.014;2023-04-03T03:12:07;1.80;;;0.90;;
62863;SDS011;48954;59.950;11.014;2023-04-03T03:14:33;2.20;;;1.00;;
62863;SDS011;48954;59.950;11.014;2023-04-03T03:17:00;3.00;;;1.10;;
62863;SDS011;48954;59.950;11.014;2023-04-03T03:19:26;4.00;;;1.10;;
62863;SDS011;48954;59.950;11.014;2023-04-03T03:21:52;3.70;;;1.50;;
62863;SDS011;48954;59.950;11.014;2023-04-03T03:24:18;4.50;;;1.40;;
62863;SDS011;48954;59.950;11.014;2023-04-03T03:26:44;3.80;;;1.20;;
62863;SDS011;48954;59.950;11.014;2023-04-03T03:29:10;3.10;;;1.10;;
62863;SDS011;48954;59.950;11.014;2023-04-03T03:31:36;2.40;;;0.90;;
62863;SDS011;48954;59.950;11.014;2023-04-03T03:34:02;3.00;;;0.90;;
62863;SDS011;48954;59.950;11.014;2023-04-03T03:36:28;3.70;;;1.40;;
62863;SDS011;48954;59.950;11.014;2023-04-03T03:38:54;1.70;;;0.90;;
62863;SDS011;48954;59.950;11.014;2023-04-03T03:41:19;4.00;;;1.30;;
62863;SDS011;48954;59.950;11.014;2023-04-03T03:43:45;2.70;;;0.90;;
62863;SDS011;48954;59.950;11.014;2023-04-03T03:46:11;2.30;;;0.90;;
62863;SDS011;48954;59.950;11.014;2023-04-03T03:48:37;1.50;;;0.70;;
62863;SDS011;48954;59.950;11.014;2023-04-03T03:51:03;2.30;;;0.80;;
62863;SDS011;48954;59.950;11.014;2023-04-03T03:53:29;2.40;;;0.70;;
62863;SDS011;48954;59.950;11.014;2023-04-03T03:55:55;2.10;;;0.80;;
62863;SDS011;48954;59.950;11.014;2023-04-03T03:58:20;1.60;;;0.60;;
62863;SDS011;48954;59.950;11.014;2023-04-03T04:00:47;5.50;;;2.50;;
62863;SDS011;48954;59.950;11.014;2023-04-03T04:03:12;3.50;;;1.80;;
62863;SDS011;48954;59.950;11.014;2023-04-03T04:05:38;4.30;;;1.50;;
62863;SDS011;48954;59.950;11.014;2023-04-03T04:08:05;2.50;;;1.10;;
62863;SDS011;48954;59.950;11.014;2023-04-03T04:10:31;4.80;;;1.70;;
62863;SDS011;48954;59.950;11.014;2023-04-03T04:12:57;2.50;;;0.90;;
62863;SDS011;48954;59.950;11.014;2023-04-03T04:15:23;1.70;;;0.70;;
62863;SDS011;48954;59.950;11.014;2023-04-03T04:17:49;2.30;;;1.00;;
62863;SDS011;48954;59.950;11.014;2023-04-03T04:20:15;3.50;;;1.10;;
62863;SDS011;48954;59.950;11.014;2023-04-03T04:22:41;4.70;;;1.20;;
62863;SDS011;48954;59.950;11.014;2023-04-03T04:25:07;2.30;;;1.00;;
62863;SDS011;48954;59.950;11.014;2023-04-03T04:27:33;3.00;;;1.10;;
62863;SDS011;48954;59.950;11.014;2023-04-03T04:30:01;3.00;;;0.90;;
62863;SDS011;48954;59.950;11.014;2023-04-03T04:32:27;2.90;;;1.70;;
62863;SDS011;48954;59.950;11.014;2023-04-03T04:34:53;3.50;;;1.20;;
62863;SDS011;48954;59.950;11.014;2023-04-03T04:37:19;2.40;;;0.90;;
62863;SDS011;48954;59.950;11.014;2023-04-03T04:39:45;7.30;;;1.80;;
62863;SDS011;48954;59.950;11.014;2023-04-03T04:42:11;2.60;;;1.00;;
62863;SDS011;48954;59.950;11.014;2023-04-03T04:44:41;3.30;;;1.00;;
62863;SDS011;48954;59.950;11.014;2023-04-03T04:47:06;3.30;;;0.90;;
62863;SDS011;48954;59.950;11.014;2023-04-03T04:49:32;4.40;;;1.00;;
62863;SDS011;48954;59.950;11.014;2023-04-03T04:51:58;2.40;;;0.90;;
62863;SDS011;48954;59.950;11.014;2023-04-03T04:54:24;5.80;;;1.20;;
62863;SDS011;48954;59.950;11.014;2023-04-03T04:56:50;3.70;;;1.30;;
62863;SDS011;48954;59.950;11.014;2023-04-03T04:59:15;3.90;;;0.80;;
62863;SDS011;48954;59.950;11.014;2023-04-03T05:01:41;4.10;;;1.20;;
62863;SDS011;48954;59.950;11.014;2023-04-03T05:04:07;4.50;;;1.20;;
62863;SDS011;48954;59.950;11.014;2023-04-03T05:06:33;4.40;;;1.20;;
62863;SDS011;48954;59.950;11.014;2023-04-03T05:08:59;4.60;;;1.30;;
62863;SDS011;48954;59.950;11.014;2023-04-03T05:11:24;4.60;;;1.20;;
62863;SDS011;48954;59.950;11.014;2023-04-03T05:13:50;3.50;;;1.30;;
62863;SDS011;48954;59.950;11.014;2023-04-03T05:16:16;3.90;;;1.10;;
62863;SDS011;48954;59.950;11.014;2023-04-03T05:18:42;4.70;;;1.50;;
62863;SDS011;48954;59.950;11.014;2023-04-03T05:21:08;4.10;;;1.50;;
62863;SDS011;48954;59.950;11.014;2023-04-03T05:23:33;6.00;;;1.20;;
62863;SDS011;48954;59.950;11.014;2023-04-03T05:25:59;1.90;;;0.90;;
62863;SDS011;48954;59.950;11.014;2023-04-03T05:28:25;5.90;;;1.30;;
62863;SDS011;48954;59.950;11.014;2023-04-03T05:30:55;4.10;;;1.10;;
62863;SDS011;48954;59.950;11.014;2023-04-03T05:33:25;4.00;;;1.90;;
62863;SDS011;48954;59.950;11.014;2023-04-03T05:36:01;3.40;;;1.50;;
62863;SDS011;48954;59.950;11.014;2023-04-03T05:38:29;2.90;;;1.20;;
62863;SDS011;48954;59.950;11.014;2023-04-03T05:40:55;5.80;;;1.80;;
62863;SDS011;48954;59.950;11.014;2023-04-03T05:43:21;3.80;;;1.70;;
62863;SDS011;48954;59.950;11.014;2023-04-03T05:45:47;5.20;;;2.00;;
62863;SDS011;48954;59.950;11.014;2023-04-03T05:48:13;4.70;;;1.70;;
62863;SDS011;48954;59.950;11.014;2023-04-03T05:50:39;3.10;;;1.20;;
62863;SDS011;48954;59.950;11.014;2023-04-03T05:53:05;4.80;;;1.10;;
62863;SDS011;48954;59.950;11.014;2023-04-03T05:55:31;5.10;;;1.50;;
62863;SDS011;48954;59.950;11.014;2023-04-03T05:57:57;1.70;;;0.90;;
62863;SDS011;48954;59.950;11.014;2023-04-03T06:00:23;4.10;;;1.30;;
62863;SDS011;48954;59.950;11.014;2023-04-03T06:02:49;1.80;;;0.90;;
62863;SDS011;48954;59.950;11.014;2023-04-03T06:05:15;2.90;;;1.00;;
62863;SDS011;48954;59.950;11.014;2023-04-03T06:07:41;3.30;;;1.10;;
62863;SDS011;48954;59.950;11.014;2023-04-03T06:10:07;6.80;;;1.30;;
62863;SDS011;48954;59.950;11.014;2023-04-03T06:12:33;4.00;;;1.50;;
62863;SDS011;48954;59.950;11.014;2023-04-03T06:14:59;2.90;;;1.10;;
62863;SDS011;48954;59.950;11.014;2023-04-03T06:17:25;2.30;;;1.00;;
62863;SDS011;48954;59.950;11.014;2023-04-03T06:19:51;3.90;;;1.40;;
62863;SDS011;48954;59.950;11.014;2023-04-03T06:22:16;3.60;;;1.20;;
62863;SDS011;48954;59.950;11.014;2023-04-03T06:24:42;1.70;;;0.80;;
62863;SDS011;48954;59.950;11.014;2023-04-03T06:27:09;4.30;;;1.20;;
62863;SDS011;48954;59.950;11.014;2023-04-03T06:29:35;6.50;;;1.70;;
62863;SDS011;48954;59.950;11.014;2023-04-03T06:32:01;5.20;;;1.40;;
62863;SDS011;48954;59.950;11.014;2023-04-03T06:34:27;5.50;;;1.90;;
62863;SDS011;48954;59.950;11.014;2023-04-03T06:36:53;4.50;;;2.60;;
62863;SDS011;48954;59.950;11.014;2023-04-03T06:39:19;7.70;;;3.00;;
62863;SDS011;48954;59.950;11.014;2023-04-03T06:41:46;8.80;;;4.20;;
62863;SDS011;48954;59.950;11.014;2023-04-03T06:44:12;8.40;;;3.30;;
62863;SDS011;48954;59.950;11.014;2023-04-03T06:46:38;10.50;;;3.60;;
62863;SDS011;48954;59.950;11.014;2023-04-03T06:49:06;9.60;;;3.30;;
62863;SDS011;48954;59.950;11.014;2023-04-03T06:51:31;6.60;;;2.10;;
62863;SDS011;48954;59.950;11.014;2023-04-03T06:53:58;5.40;;;2.30;;
62863;SDS011;48954;59.950;11.014;2023-04-03T06:56:25;12.00;;;2.10;;
62863;SDS011;48954;59.950;11.014;2023-04-03T06:58:52;6.60;;;2.70;;
62863;SDS011;48954;59.950;11.014;2023-04-03T07:01:20;16.80;;;2.70;;
62863;SDS011;48954;59.950;11.014;2023-04-03T07:03:47;3.70;;;1.80;;
62863;SDS011;48954;59.950;11.014;2023-04-03T07:06:14;5.60;;;1.80;;
62863;SDS011;48954;59.950;11.014;2023-04-03T07:08:41;5.30;;;1.50;;
62863;SDS011;48954;59.950;11.014;2023-04-03T07:11:07;5.70;;;1.90;;
62863;SDS011;48954;59.950;11.014;2023-04-03T07:13:34;8.40;;;2.20;;
62863;SDS011;48954;59.950;11.014;2023-04-03T07:16:00;4.20;;;2.00;;
62863;SDS011;48954;59.950;11.014;2023-04-03T07:18:26;8.20;;;2.00;;
62863;SDS011;48954;59.950;11.014;2023-04-03T07:20:52;5.50;;;2.00;;
62863;SDS011;48954;59.950;11.014;2023-04-03T07:23:23;7.40;;;1.90;;
62863;SDS011;48954;59.950;11.014;2023-04-03T07:25:50;6.40;;;2.60;;
62863;SDS011;48954;59.950;11.014;2023-04-03T07:28:17;5.00;;;2.00;;
62863;SDS011;48954;59.950;11.014;2023-04-03T07:30:45;7.40;;;2.60;;
62863;SDS011;48954;59.950;11.014;2023-04-03T07:33:14;9.30;;;2.70;;
62863;SDS011;48954;59.950;11.014;2023-04-03T07:35:42;6.90;;;2.30;;
62863;SDS011;48954;59.950;11.014;2023-04-03T07:38:08;9.70;;;2.50;;
62863;SDS011;48954;59.950;11.014;2023-04-03T07:40:35;10.20;;;3.10;;
62863;SDS011;48954;59.950;11.014;2023-04-03T07:43:02;5.30;;;2.30;;
62863;SDS011;48954;59.950;11.014;2023-04-03T07:45:29;8.00;;;2.70;;
62863;SDS011;48954;59.950;11.014;2023-04-03T07:47:55;10.30;;;2.90;;
62863;SDS011;48954;59.950;11.014;2023-04-03T07:50:22;18.70;;;4.10;;
62863;SDS011;48954;59.950;11.014;2023-04-03T07:52:47;10.50;;;3.20;;
62863;SDS011;48954;59.950;11.014;2023-04-03T07:55:13;7.50;;;2.70;;
62863;SDS011;48954;59.950;11.014;2023-04-03T07:57:45;9.50;;;3.60;;
62863;SDS011;48954;59.950;11.014;2023-04-03T08:00:12;13.40;;;3.70;;
62863;SDS011;48954;59.950;11.014;2023-04-03T08:02:39;7.40;;;2.70;;
62863;SDS011;48954;59.950;11.014;2023-04-03T08:05:08;17.50;;;3.80;;
62863;SDS011;48954;59.950;11.014;2023-04-03T08:07:42;8.80;;;3.00;;
62863;SDS011;48954;59.950;11.014;2023-04-03T08:10:08;15.80;;;3.20;;
62863;SDS011;48954;59.950;11.014;2023-04-03T08:12:34;10.10;;;4.10;;
62863;SDS011;48954;59.950;11.014;2023-04-03T08:15:01;4.60;;;1.70;;
62863;SDS011;48954;59.950;11.014;2023-04-03T08:17:27;5.30;;;1.70;;
62863;SDS011;48954;59.950;11.014;2023-04-03T08:19:53;3.00;;;1.80;;
62863;SDS011;48954;59.950;11.014;2023-04-03T08:22:18;3.80;;;1.90;;
62863;SDS011;48954;59.950;11.014;2023-04-03T08:24:46;4.30;;;1.80;;
62863;SDS011;48954;59.950;11.014;2023-04-03T08:27:12;6.20;;;2.10;;
62863;SDS011;48954;59.950;11.014;2023-04-03T08:29:38;6.00;;;2.50;;
62863;SDS011;48954;59.950;11.014;2023-04-03T08:32:04;4.50;;;1.90;;
62863;SDS011;48954;59.950;11.014;2023-04-03T08:34:31;4.80;;;1.60;;
62863;SDS011;48954;59.950;11.014;2023-04-03T08:36:57;4.70;;;1.80;;
62863;SDS011;48954;59.950;11.014;2023-04-03T08:39:23;4.60;;;2.10;;
62863;SDS011;48954;59.950;11.014;2023-04-03T08:41:49;3.40;;;1.80;;
62863;SDS011;48954;59.950;11.014;2023-04-03T08:52:05;5.90;;;2.30;;
62863;SDS011;48954;59.950;11.014;2023-04-03T08:54:42;3.60;;;1.70;;
62863;SDS011;48954;59.950;11.014;2023-04-03T08:57:15;6.60;;;2.30;;
62863;SDS011;48954;59.950;11.014;2023-04-03T08:59:43;8.30;;;2.90;;
62863;SDS011;48954;59.950;11.014;2023-04-03T09:02:26;8.90;;;1.90;;
62863;SDS011;48954;59.950;11.014;2023-04-03T09:04:58;6.90;;;2.40;;
62863;SDS011;48954;59.950;11.014;2023-04-03T09:07:42;7.70;;;3.30;;
62863;SDS011;48954;59.950;11.014;2023-04-03T09:10:12;6.40;;;2.30;;
62863;SDS011;48954;59.950;11.014;2023-04-03T09:12:41;6.00;;;2.70;;
62863;SDS011;48954;59.950;11.014;2023-04-03T09:17:47;4.20;;;1.80;;
62863;SDS011;48954;59.950;11.014;2023-04-03T09:23:08;4.30;;;2.10;;
62863;SDS011;48954;59.950;11.014;2023-04-03T09:25:42;3.70;;;1.60;;
62863;SDS011;48954;59.950;11.014;2023-04-03T09:28:09;4.80;;;1.80;;
62863;SDS011;48954;59.950;11.014;2023-04-03T09:30:35;4.20;;;1.50;;
62863;SDS011;48954;59.950;11.014;2023-04-03T09:33:03;5.30;;;2.10;;
62863;SDS011;48954;59.950;11.014;2023-04-03T09:35:30;3.40;;;1.50;;
62863;SDS011;48954;59.950;11.014;2023-04-03T09:40:37;2.70;;;1.10;;
62863;SDS011;48954;59.950;11.014;2023-04-03T09:45:42;3.70;;;1.30;;
62863;SDS011;48954;59.950;11.014;2023-04-03T09:50:52;4.60;;;1.60;;
62863;SDS011;48954;59.950;11.014;2023-04-03T09:58:45;2.80;;;1.30;;
62863;SDS011;48954;59.950;11.014;2023-04-03T10:01:37;3.50;;;1.60;;
62863;SDS011;48954;59.950;11.014;2023-04-03T10:04:06;3.70;;;1.30;;
62863;SDS011;48954;59.950;11.014;2023-04-03T10:09:17;4.00;;;1.40;;
62863;SDS011;48954;59.950;11.014;2023-04-03T10:11:57;3.70;;;1.20;;
62863;SDS011;48954;59.950;11.014;2023-04-03T10:14:59;5.30;;;1.50;;
62863;SDS011;48954;59.950;11.014;2023-04-03T10:20:37;3.40;;;1.40;;
62863;SDS011;48954;59.950;11.014;2023-04-03T10:23:24;3.80;;;1.60;;
62863;SDS011;48954;59.950;11.014;2023-04-03T10:26:07;6.30;;;1.40;;
62863;SDS011;48954;59.950;11.014;2023-04-03T10:40:04;3.40;;;1.50;;
62863;SDS011;48954;59.950;11.014;2023-04-03T11:09:07;3.60;;;1.30;;
62863;SDS011;48954;59.950;11.014;2023-04-03T11:15:27;4.60;;;1.30;;
62863;SDS011;48954;59.950;11.014;2023-04-03T11:18:56;3.00;;;1.40;;
62863;SDS011;48954;59.950;11.014;2023-04-03T11:22:22;3.30;;;1.20;;
62863;SDS011;48954;59.950;11.014;2023-04-03T11:25:41;7.30;;;1.30;;
62863;SDS011;48954;59.950;11.014;2023-04-03T11:28:56;5.80;;;1.80;;
62863;SDS011;48954;59.950;11.014;2023-04-03T11:32:41;3.60;;;1.70;;
62863;SDS011;48954;59.950;11.014;2023-04-03T11:35:34;2.90;;;1.50;;
62863;SDS011;48954;59.950;11.014;2023-04-03T11:39:00;3.40;;;1.20;;
62863;SDS011;48954;59.950;11.014;2023-04-03T11:41:52;3.80;;;1.40;;
62863;SDS011;48954;59.950;11.014;2023-04-03T11:44:33;8.60;;;1.40;;
62863;SDS011;48954;59.950;11.014;2023-04-03T12:01:04;3.90;;;2.00;;
62863;SDS011;48954;59.950;11.014;2023-04-03T12:04:06;4.30;;;1.50;;
62863;SDS011;48954;59.950;11.014;2023-04-03T12:06:50;3.20;;;1.20;;
62863;SDS011;48954;59.950;11.014;2023-04-03T12:15:23;19.50;;;2.50;;
62863;SDS011;48954;59.950;11.014;2023-04-03T12:21:10;12.70;;;2.30;;
62863;SDS011;48954;59.950;11.014;2023-04-03T12:23:57;5.70;;;1.60;;
62863;SDS011;48954;59.950;11.014;2023-04-03T12:26:43;4.90;;;1.30;;
62863;SDS011;48954;59.950;11.014;2023-04-03T12:29:36;4.90;;;1.20;;
62863;SDS011;48954;59.950;11.014;2023-04-03T12:32:48;3.90;;;1.30;;
62863;SDS011;48954;59.950;11.014;2023-04-03T12:35:40;4.20;;;1.40;;
62863;SDS011;48954;59.950;11.014;2023-04-03T12:39:13;4.20;;;1.30;;
62863;SDS011;48954;59.950;11.014;2023-04-03T12:41:53;3.40;;;1.00;;
62863;SDS011;48954;59.950;11.014;2023-04-03T12:47:35;4.40;;;1.20;;
62863;SDS011;48954;59.950;11.014;2023-04-03T12:50:16;7.40;;;1.50;;
62863;SDS011;48954;59.950;11.014;2023-04-03T12:52:56;2.80;;;1.20;;
62863;SDS011;48954;59.950;11.014;2023-04-03T12:55:39;3.80;;;1.20;;
62863;SDS011;48954;59.950;11.014;2023-04-03T13:03:30;5.20;;;1.60;;
62863;SDS011;48954;59.950;11.014;2023-04-03T13:05:59;4.60;;;1.50;;
62863;SDS011;48954;59.950;11.014;2023-04-03T13:08:26;2.80;;;1.30;;
62863;SDS011;48954;59.950;11.014;2023-04-03T13:11:09;6.10;;;1.50;;
62863;SDS011;48954;59.950;11.014;2023-04-03T13:13:37;3.50;;;1.20;;
62863;SDS011;48954;59.950;11.014;2023-04-03T13:16:09;3.30;;;1.30;;
62863;SDS011;48954;59.950;11.014;2023-04-03T13:18:39;6.50;;;1.60;;
62863;SDS011;48954;59.950;11.014;2023-04-03T13:21:17;3.00;;;1.30;;
62863;SDS011;48954;59.950;11.014;2023-04-03T13:23:52;4.70;;;1.10;;
62863;SDS011;48954;59.950;11.014;2023-04-03T13:26:26;2.70;;;1.10;;
62863;SDS011;48954;59.950;11.014;2023-04-03T13:28:57;2.90;;;1.10;;
62863;SDS011;48954;59.950;11.014;2023-04-03T13:31:37;4.00;;;1.30;;
62863;SDS011;48954;59.950;11.014;2023-04-03T13:34:22;2.40;;;1.10;;
62863;SDS011;48954;59.950;11.014;2023-04-03T13:37:00;4.10;;;1.30;;
62863;SDS011;48954;59.950;11.014;2023-04-03T13:39:32;3.10;;;1.20;;
62863;SDS011;48954;59.950;11.014;2023-04-03T13:48:18;3.50;;;1.50;;
62863;SDS011;48954;59.950;11.014;2023-04-03T13:53:20;5.80;;;1.40;;
62863;SDS011;48954;59.950;11.014;2023-04-03T13:55:54;3.80;;;1.40;;
62863;SDS011;48954;59.950;11.014;2023-04-03T13:58:35;5.40;;;1.10;;
62863;SDS011;48954;59.950;11.014;2023-04-03T14:01:20;4.00;;;2.10;;
62863;SDS011;48954;59.950;11.014;2023-04-03T14:03:59;2.80;;;1.30;;
62863;SDS011;48954;59.950;11.014;2023-04-03T14:06:43;3.60;;;1.50;;
62863;SDS011;48954;59.950;11.014;2023-04-03T14:09:13;5.30;;;2.00;;
62863;SDS011;48954;59.950;11.014;2023-04-03T14:11:52;4.60;;;2.00;;
62863;SDS011;48954;59.950;11.014;2023-04-03T14:14:22;7.20;;;2.80;;
62863;SDS011;48954;59.950;11.014;2023-04-03T14:16:59;5.80;;;1.50;;
62863;SDS011;48954;59.950;11.014;2023-04-03T14:19:29;5.90;;;1.30;;
62863;SDS011;48954;59.950;11.014;2023-04-03T14:22:20;3.40;;;1.40;;
62863;SDS011;48954;59.950;11.014;2023-04-03T14:24:48;5.60;;;1.50;;
62863;SDS011;48954;59.950;11.014;2023-04-03T14:30:14;3.50;;;1.70;;
62863;SDS011;48954;59.950;11.014;2023-04-03T14:32:50;6.80;;;1.90;;
62863;SDS011;48954;59.950;11.014;2023-04-03T14:35:19;5.00;;;1.60;;
62863;SDS011;48954;59.950;11.014;2023-04-03T14:37:46;4.10;;;1.50;;
62863;SDS011;48954;59.950;11.014;2023-04-03T14:40:15;4.10;;;1.70;;
62863;SDS011;48954;59.950;11.014;2023-04-03T14:42:48;7.20;;;1.60;;
62863;SDS011;48954;59.950;11.014;2023-04-03T14:45:15;4.80;;;1.40;;
62863;SDS011;48954;59.950;11.014;2023-04-03T14:47:46;3.50;;;1.70;;
62863;SDS011;48954;59.950;11.014;2023-04-03T14:50:15;3.40;;;1.50;;
62863;SDS011;48954;59.950;11.014;2023-04-03T14:52:46;3.70;;;1.70;;
62863;SDS011;48954;59.950;11.014;2023-04-03T14:55:16;4.40;;;1.50;;
62863;SDS011;48954;59.950;11.014;2023-04-03T14:57:45;4.20;;;1.60;;
62863;SDS011;48954;59.950;11.014;2023-04-03T15:00:14;5.50;;;1.80;;
62863;SDS011;48954;59.950;11.014;2023-04-03T15:02:43;5.20;;;1.70;;
62863;SDS011;48954;59.950;11.014;2023-04-03T15:05:09;9.70;;;3.20;;
62863;SDS011;48954;59.950;11.014;2023-04-03T15:07:37;4.50;;;1.90;;
62863;SDS011;48954;59.950;11.014;2023-04-03T15:10:26;4.40;;;2.10;;
62863;SDS011;48954;59.950;11.014;2023-04-03T15:12:53;4.60;;;2.20;;
62863;SDS011;48954;59.950;11.014;2023-04-03T15:15:20;4.30;;;1.60;;
62863;SDS011;48954;59.950;11.014;2023-04-03T15:17:50;4.20;;;1.60;;
62863;SDS011;48954;59.950;11.014;2023-04-03T15:20:19;4.10;;;1.70;;
62863;SDS011;48954;59.950;11.014;2023-04-03T15:22:46;5.40;;;1.90;;
62863;SDS011;48954;59.950;11.014;2023-04-03T15:25:12;3.60;;;1.60;;
62863;SDS011;48954;59.950;11.014;2023-04-03T15:27:39;4.00;;;2.10;;
62863;SDS011;48954;59.950;11.014;2023-04-03T15:30:05;3.50;;;1.60;;
62863;SDS011;48954;59.950;11.014;2023-04-03T15:32:34;4.90;;;2.00;;
62863;SDS011;48954;59.950;11.014;2023-04-03T15:35:00;5.90;;;2.00;;
62863;SDS011;48954;59.950;11.014;2023-04-03T15:37:25;6.30;;;1.70;;
62863;SDS011;48954;59.950;11.014;2023-04-03T15:39:51;4.70;;;1.80;;
62863;SDS011;48954;59.950;11.014;2023-04-03T15:42:17;4.40;;;1.70;;
62863;SDS011;48954;59.950;11.014;2023-04-03T15:44:45;6.20;;;2.60;;
62863;SDS011;48954;59.950;11.014;2023-04-03T15:47:11;5.20;;;2.20;;
62863;SDS011;48954;59.950;11.014;2023-04-03T15:49:37;5.10;;;1.70;;
62863;SDS011;48954;59.950;11.014;2023-04-03T15:52:03;5.80;;;2.00;;
62863;SDS011;48954;59.950;11.014;2023-04-03T15:54:29;6.40;;;2.00;;
62863;SDS011;48954;59.950;11.014;2023-04-03T15:56:55;4.20;;;2.00;;
62863;SDS011;48954;59.950;11.014;2023-04-03T15:59:22;4.40;;;2.30;;
62863;SDS011;48954;59.950;11.014;2023-04-03T16:01:49;4.30;;;1.90;;
62863;SDS011;48954;59.950;11.014;2023-04-03T16:04:16;6.20;;;1.80;;
62863;SDS011;48954;59.950;11.014;2023-04-03T16:06:43;5.40;;;2.30;;
62863;SDS011;48954;59.950;11.014;2023-04-03T16:09:10;11.30;;;1.70;;
62863;SDS011;48954;59.950;11.014;2023-04-03T16:11:39;9.70;;;2.70;;
62863;SDS011;48954;59.950;11.014;2023-04-03T16:14:05;6.00;;;2.20;;
62863;SDS011;48954;59.950;11.014;2023-04-03T16:16:35;6.20;;;2.20;;
62863;SDS011;48954;59.950;11.014;2023-04-03T16:19:08;8.50;;;2.60;;
62863;SDS011;48954;59.950;11.014;2023-04-03T16:21:41;9.00;;;2.60;;
62863;SDS011;48954;59.950;11.014;2023-04-03T16:24:10;5.10;;;2.60;;
62863;SDS011;48954;59.950;11.014;2023-04-03T16:26:40;5.90;;;2.20;;
62863;SDS011;48954;59.950;11.014;2023-04-03T16:29:06;9.00;;;3.30;;
62863;SDS011;48954;59.950;11.014;2023-04-03T16:31:32;5.80;;;2.40;;
62863;SDS011;48954;59.950;11.014;2023-04-03T16:33:59;4.20;;;1.80;;
62863;SDS011;48954;59.950;11.014;2023-04-03T16:36:28;3.00;;;1.60;;
62863;SDS011;48954;59.950;11.014;2023-04-03T16:38:54;6.60;;;1.80;;
62863;SDS011;48954;59.950;11.014;2023-04-03T16:41:20;4.00;;;2.20;;
62863;SDS011;48954;59.950;11.014;2023-04-03T16:43:46;4.10;;;1.60;;
62863;SDS011;48954;59.950;11.014;2023-04-03T16:46:14;4.90;;;2.10;;
62863;SDS011;48954;59.950;11.014;2023-04-03T16:48:49;5.00;;;2.30;;
62863;SDS011;48954;59.950;11.014;2023-04-03T16:51:15;8.90;;;1.60;;
62863;SDS011;48954;59.950;11.014;2023-04-03T16:53:41;5.10;;;1.80;;
62863;SDS011;48954;59.950;11.014;2023-04-03T16:56:07;3.90;;;1.70;;
62863;SDS011;48954;59.950;11.014;2023-04-03T16:58:34;5.30;;;1.60;;
62863;SDS011;48954;59.950;11.014;2023-04-03T17:01:10;3.30;;;2.10;;
62863;SDS011;48954;59.950;11.014;2023-04-03T17:03:42;3.70;;;2.40;;
62863;SDS011;48954;59.950;11.014;2023-04-03T17:06:09;4.90;;;2.50;;